This is the latest recevied weather packets stored in our database for station/object YF9UAG-16. If no packets are shown the sender has not sent any weather packets the latest 10 day(s).
| Time | Temp. | Humidity | Pressure | Rain* | Wind** | Luminosity | Snow |
|---|---|---|---|---|---|---|---|
| 1778109405 | 28.89° C | 77% | 1010 hPa | - | - | 0 W/m² | - |
| 1778109083 | 28.33° C | 77% | 1010 hPa | - | - | 0 W/m² | - |
| 1778108761 | 28.33° C | 74% | 1010 hPa | - | - | 0 W/m² | - |
| 1778108439 | 28.89° C | 78% | 1010 hPa | - | - | 0 W/m² | - |
| 1778108117 | 28.33° C | 77% | 1010 hPa | - | - | 0 W/m² | - |
| 1778107795 | 27.78° C | 75% | 1010 hPa | - | - | 0 W/m² | - |
| 1778107473 | 28.89° C | 79% | 1010 hPa | - | - | 0 W/m² | - |
| 1778107151 | 28.33° C | 78% | 1010 hPa | - | - | 0 W/m² | - |
| 1778106829 | 27.78° C | 76% | 1010 hPa | - | - | 0 W/m² | - |
| 1778106507 | 28.33° C | 82% | 1010 hPa | - | - | 0 W/m² | - |
| 1778106186 | 28.33° C | 81% | 1010 hPa | - | - | 0 W/m² | - |
| 1778105863 | 27.78° C | 79% | 1010 hPa | - | - | 0 W/m² | - |
| 1778105543 | 27.78° C | 79% | 1010 hPa | - | - | 0 W/m² | - |
| 1778105219 | 27.78° C | 84% | 1010 hPa | - | - | 0 W/m² | - |
| 1778104897 | 27.78° C | 82% | 1010 hPa | - | - | 0 W/m² | - |
| 1778104575 | 27.22° C | 80% | 1010 hPa | - | - | 0 W/m² | - |
| 1778104254 | 27.78° C | 82% | 1010 hPa | - | - | 0 W/m² | - |
| 1778103931 | 27.78° C | 84% | 1010 hPa | - | - | 0 W/m² | - |
| 1778103609 | 27.78° C | 82% | 1010 hPa | - | - | 0 W/m² | - |
| 1778103287 | 27.22° C | 79% | 1010 hPa | - | - | 0 W/m² | - |
| 1778102965 | 27.78° C | 85% | 1009 hPa | - | - | 0 W/m² | - |
| 1778102645 | 27.78° C | 84% | 1009 hPa | - | - | 0 W/m² | - |
| 1778102321 | 27.78° C | 81% | 1009 hPa | - | - | 0 W/m² | - |
| 1778101999 | 27.22° C | 77% | 1009 hPa | - | - | 0 W/m² | - |
| 1778101680 | 27.22° C | 77% | 1009 hPa | - | - | 0 W/m² | - |
* Rain since midnight (hover to see other rain measurements)
** Current wind speed in m/s (hover to see current wind gust speed)